Pagina principală
METAR-TAF:

METAR-TAF

Aeroporturi :

Oruro, Bolivia

Latitudine: 17-58S, longitudine: 067-04W, elevație: 3072 m

Observații meteo curente

Raportul a fost făcut în urmă cu 4 ore și 5 de minute, la 01:00 UTC
Vânt 5 kt de la Est
Temperatură 12°C
Umiditate 67%
Presiune 1036 hPa
Vizibilitate de 10 km sau mai mult

METAR: SLOR 250100Z 10005KT 9999 NSC 12/06 Q1036

Ora: 01:05 (05:05 UTC)


TAF: lipsă

Observații și prognoze meteo pentru peste 4.000 de aeroporturi (rapoarte METAR și TAF).

Stațiile disponibile sunt reprezentate pe hartă prin puncte galbene și roșii.

Țineți indicatorul mouse-ului pe punctul dorit pentru a vedea denumirea stației.

Apoi, faceți clic pentru a vedea observațiile și prognozele meteorologice.

Pentru a schimba harta: Pentru mărire, faceți clic pe butoanele verzi cu cruce neagră; pentru micșorare, pe butonul verde cu o liniuță; pentru hărți învecinate, pe săgețile verzi.


METAR-TAF: